createdAt,value
2018-03-15T00:01:04.851Z,99449.97
2018-03-15T00:03:34.746Z,99454.15
2018-03-15T00:06:04.918Z,99441.06
2018-03-15T00:08:34.089Z,99445.95
2018-03-15T00:11:04.327Z,99433.31
2018-03-15T00:13:33.433Z,99431.03
2018-03-15T00:16:02.518Z,99428.13
2018-03-15T00:18:31.632Z,99429.13
2018-03-15T00:21:00.722Z,99435.48
2018-03-15T00:23:29.901Z,99436.11
2018-03-15T00:25:59.026Z,99448.10
2018-03-15T00:28:28.119Z,99438.92
2018-03-15T00:30:57.224Z,99441.74
2018-03-15T00:33:26.308Z,99434.81
2018-03-15T00:35:55.428Z,99439.30
2018-03-15T00:38:25.275Z,99433.86
2018-03-15T00:40:55.155Z,99438.63
2018-03-15T00:43:25.032Z,99436.72
2018-03-15T00:45:54.150Z,99437.45
2018-03-15T00:48:23.237Z,99432.05
2018-03-15T00:50:53.853Z,99431.88
2018-03-15T00:53:23.010Z,99424.55
2018-03-15T00:55:52.167Z,99421.61
2018-03-15T00:58:21.255Z,99418.20
2018-03-15T01:00:50.357Z,99413.61
2018-03-15T01:03:19.484Z,99414.28
2018-03-15T01:05:49.394Z,99406.20
2018-03-15T01:08:18.517Z,99406.40
2018-03-15T01:10:47.590Z,99403.86
2018-03-15T01:13:17.479Z,99402.67
2018-03-15T01:15:46.577Z,99398.06
2018-03-15T01:18:15.708Z,99394.22
2018-03-15T01:20:45.569Z,99393.27
2018-03-15T01:23:15.477Z,99387.00
2018-03-15T01:25:44.563Z,99380.34
2018-03-15T01:28:13.886Z,99378.70
2018-03-15T01:30:42.986Z,99379.30
2018-03-15T01:33:12.112Z,99379.60
2018-03-15T01:35:41.963Z,99367.53
2018-03-15T01:38:11.134Z,99368.73
2018-03-15T01:40:41.123Z,99367.73
2018-03-15T01:43:10.213Z,99362.19
2018-03-15T01:45:39.326Z,99359.88
2018-03-15T01:48:09.203Z,99350.69
2018-03-15T01:50:38.435Z,99341.45
2018-03-15T01:53:07.542Z,99339.92
2018-03-15T01:55:37.405Z,99332.53
2018-03-15T01:58:06.569Z,99336.80
2018-03-15T02:00:36.444Z,99325.66
2018-03-15T02:03:05.678Z,99331.50
2018-03-15T02:05:35.548Z,99328.27
2018-03-15T02:08:04.656Z,99325.11
2018-03-15T02:10:33.761Z,99319.67
2018-03-15T02:13:02.888Z,99314.10
2018-03-15T02:15:32.043Z,99308.85
2018-03-15T02:18:01.941Z,99310.02
2018-03-15T02:20:31.047Z,99301.17
2018-03-15T02:23:00.153Z,99293.76
2018-03-15T02:25:29.277Z,99297.14
2018-03-15T02:27:59.154Z,99292.92
2018-03-15T02:30:28.241Z,99286.80
2018-03-15T02:32:57.348Z,99279.35
2018-03-15T02:35:26.508Z,99275.37
2018-03-15T02:37:55.594Z,99267.13
2018-03-15T02:40:24.702Z,99266.39
2018-03-15T02:42:53.807Z,99258.91
2018-03-15T02:45:22.964Z,99251.12
2018-03-15T02:47:52.328Z,99252.73
2018-03-15T02:50:36.035Z,99246.56
2018-03-15T02:53:05.132Z,99235.70
2018-03-15T02:55:34.590Z,99229.79
2018-03-15T02:58:06.066Z,99226.09
2018-03-15T03:00:37.810Z,99233.18
2018-03-15T03:03:07.760Z,99227.02
2018-03-15T03:05:36.920Z,99235.83
2018-03-15T03:08:08.007Z,99236.73
2018-03-15T03:10:40.766Z,99238.02
2018-03-15T03:13:11.233Z,99234.09
2018-03-15T03:15:40.330Z,99233.75
2018-03-15T03:18:10.193Z,99232.27
2018-03-15T03:20:39.498Z,99222.86
2018-03-15T03:23:13.113Z,99232.20
2018-03-15T03:25:42.225Z,99239.61
2018-03-15T03:28:11.454Z,99241.58
2018-03-15T03:30:42.516Z,99238.45
2018-03-15T03:33:12.375Z,99232.06
2018-03-15T03:38:35.066Z,99203.29
2018-03-15T03:41:05.983Z,99196.86
2018-03-15T03:46:10.932Z,99190.38
2018-03-15T03:48:41.214Z,99190.29
2018-03-15T03:51:12.185Z,99192.42
2018-03-15T03:53:41.272Z,99191.86
2018-03-15T03:56:17.578Z,99180.94
2018-03-15T03:58:47.824Z,99176.00
2018-03-15T04:14:52.750Z,99167.15
2018-03-15T04:17:23.082Z,99163.80
2018-03-15T04:20:00.601Z,99150.61
2018-03-15T04:22:30.133Z,99146.09
2018-03-15T04:24:59.237Z,99129.30
2018-03-15T04:27:28.358Z,99129.53
2018-03-15T04:29:57.452Z,99112.08
2018-03-15T04:32:26.538Z,99111.00
2018-03-15T04:34:58.163Z,99101.52
2018-03-15T04:37:27.620Z,99097.92
2018-03-15T04:40:03.282Z,99098.59
2018-03-15T04:42:35.786Z,99103.98
2018-03-15T04:45:06.497Z,99114.66
2018-03-15T04:47:35.625Z,99122.36
2018-03-15T04:50:04.792Z,99130.41
2018-03-15T04:52:36.190Z,99127.73
2018-03-15T04:55:05.293Z,99116.50
2018-03-15T04:57:34.419Z,99099.66
2018-03-15T05:00:06.755Z,99101.78
2018-03-15T05:02:37.015Z,99099.27
2018-03-15T05:05:06.898Z,99099.59
2018-03-15T05:07:36.122Z,99094.28
2018-03-15T05:10:05.216Z,99087.58
2018-03-15T05:12:34.991Z,99085.44
2018-03-15T05:15:06.183Z,99072.44
2018-03-15T05:17:35.455Z,99076.70
2018-03-15T05:20:06.197Z,99076.52
2018-03-15T05:22:36.376Z,99075.19
2018-03-15T05:25:05.490Z,99065.77
2018-03-15T05:27:34.613Z,99066.06
2018-03-15T05:30:05.598Z,99066.66
2018-03-15T05:32:35.716Z,99072.39
2018-03-15T05:35:06.327Z,99075.62
2018-03-15T05:37:36.673Z,99061.70
2018-03-15T05:53:19.512Z,99049.88
2018-03-15T05:58:28.001Z,99039.16
2018-03-15T06:00:59.590Z,99023.26
2018-03-15T06:03:30.829Z,99028.41
2018-03-15T06:05:59.938Z,99029.25
2018-03-15T06:08:29.030Z,99034.61
2018-03-15T06:10:58.353Z,99041.42
2018-03-15T06:13:27.462Z,99043.83
2018-03-15T06:15:57.527Z,99046.04
2018-03-15T06:18:28.040Z,99038.06
2018-03-15T06:20:57.151Z,99043.31
2018-03-15T06:23:33.120Z,99035.50
2018-03-15T06:26:04.674Z,99032.05
2018-03-15T06:28:36.034Z,99023.72
2018-03-15T06:31:05.149Z,99021.66
2018-03-15T06:33:44.630Z,99021.14
2018-03-15T06:36:13.841Z,99020.28
2018-03-15T06:38:46.739Z,99010.73
2018-03-15T06:41:15.826Z,99005.11
2018-03-15T06:43:50.786Z,99001.17
2018-03-15T06:46:22.238Z,98998.88
2018-03-15T06:48:51.441Z,98995.73
2018-03-15T06:51:20.521Z,98989.33
2018-03-15T06:53:49.647Z,98987.12
2018-03-15T06:56:18.750Z,98980.57
2018-03-15T06:58:47.844Z,98984.64
2018-03-15T07:01:16.972Z,98985.86
2018-03-15T07:03:46.856Z,98983.80
2018-03-15T07:06:18.648Z,98979.13
2018-03-15T07:08:48.387Z,98976.06
2018-03-15T07:11:17.750Z,98974.31
2018-03-15T07:13:46.895Z,98976.12
2018-03-15T07:16:16.409Z,98975.52
2018-03-15T07:18:45.480Z,98974.83
2018-03-15T07:21:16.014Z,98965.00
2018-03-15T07:23:45.089Z,98957.70
2018-03-15T07:26:14.680Z,98964.71
2018-03-15T07:28:45.082Z,98960.39
2018-03-15T07:31:15.928Z,98951.74
2018-03-15T07:33:48.008Z,98948.70
2018-03-15T07:36:17.870Z,98945.84
2018-03-15T07:38:48.029Z,98953.49
2018-03-15T07:41:28.542Z,98960.23
2018-03-15T07:43:57.661Z,98962.55
2018-03-15T07:46:26.736Z,98967.01
2018-03-15T07:48:57.569Z,98969.94
2018-03-15T07:51:28.894Z,98966.34
2018-03-15T07:53:58.915Z,98960.27
2018-03-15T07:56:29.813Z,98955.48
2018-03-15T07:58:59.274Z,98953.33
2018-03-15T08:01:30.473Z,98945.48
2018-03-15T08:04:00.179Z,98948.22
2018-03-15T08:06:30.024Z,98946.00
2018-03-15T08:08:59.919Z,98958.47
2018-03-15T08:11:29.384Z,98952.88
2018-03-15T08:14:00.935Z,98945.58
2018-03-15T08:16:30.882Z,98946.58
2018-03-15T08:19:00.454Z,98948.73
2018-03-15T08:21:29.573Z,98942.75
2018-03-15T08:23:59.354Z,98930.12
2018-03-15T08:26:29.434Z,98931.77
2018-03-15T08:29:00.103Z,98925.67
2018-03-15T08:31:33.039Z,98917.55
2018-03-15T08:34:02.247Z,98908.34
2018-03-15T08:36:34.057Z,98915.79
2018-03-15T08:39:03.148Z,98910.21
2018-03-15T08:41:32.354Z,98903.55
2018-03-15T08:44:03.299Z,98889.95
2018-03-15T08:46:34.835Z,98886.26
2018-03-15T08:49:05.258Z,98895.56
2018-03-15T08:51:34.352Z,98892.81
2018-03-15T08:54:12.428Z,98887.30
2018-03-15T08:56:46.992Z,98885.56
2018-03-15T08:59:19.762Z,98891.47
2018-03-15T09:01:49.146Z,98896.87
2018-03-15T09:04:22.669Z,98896.49
2018-03-15T09:06:54.478Z,98886.30
2018-03-15T09:09:23.889Z,98879.98
2018-03-15T09:11:54.571Z,98863.50
2018-03-15T09:14:26.736Z,98870.77
2018-03-15T09:16:56.167Z,98870.61
2018-03-15T09:19:27.638Z,98878.16
2018-03-15T09:21:57.602Z,98871.38
2018-03-15T09:24:27.296Z,98870.70
2018-03-15T09:26:56.690Z,98864.92
2018-03-15T09:29:26.002Z,98871.48
2018-03-15T09:31:55.878Z,98874.83
2018-03-15T09:34:26.555Z,98861.84
2018-03-15T09:36:56.248Z,98855.19
2018-03-15T09:39:25.854Z,98851.39
2018-03-15T09:41:55.898Z,98842.14
2018-03-15T09:44:25.282Z,98835.64
2018-03-15T09:46:55.875Z,98831.25
2018-03-15T09:49:25.026Z,98826.59
2018-03-15T09:51:54.153Z,98808.62
2018-03-15T09:54:23.278Z,98790.30
2018-03-15T09:56:53.183Z,98786.09
2018-03-15T09:59:23.110Z,98782.14
2018-03-15T10:01:53.008Z,98783.75
2018-03-15T10:04:22.116Z,98776.66
2018-03-15T10:06:52.034Z,98783.45
2018-03-15T10:09:21.916Z,98791.66
2018-03-15T10:11:51.050Z,98780.31
2018-03-15T10:14:20.923Z,98775.03
2018-03-15T10:16:50.050Z,98784.40
2018-03-15T10:19:19.159Z,98791.45
2018-03-15T10:21:49.084Z,98804.84
2018-03-15T10:24:18.944Z,98809.86
2018-03-15T10:26:48.055Z,98802.75
2018-03-15T10:29:17.186Z,98810.00
2018-03-15T10:31:47.053Z,98810.42
2018-03-15T10:34:16.180Z,98808.23
2018-03-15T10:36:46.085Z,98806.20
2018-03-15T10:39:15.206Z,98805.64
2018-03-15T10:41:45.088Z,98806.50
2018-03-15T10:44:14.258Z,98810.19
2018-03-15T10:46:43.389Z,98808.23
2018-03-15T10:49:12.504Z,98796.27
2018-03-15T10:51:42.399Z,98786.11
2018-03-15T10:54:13.782Z,98786.27
2018-03-15T10:56:42.893Z,98791.36
2018-03-15T10:59:12.027Z,98793.33
2018-03-15T11:01:46.537Z,98790.70
2018-03-15T11:04:15.694Z,98786.48
2018-03-15T11:06:50.351Z,98783.30
2018-03-15T11:09:23.320Z,98777.11
2018-03-15T11:11:52.477Z,98774.16
2018-03-15T11:14:21.574Z,98764.50
2018-03-15T11:16:51.895Z,98759.58
2018-03-15T11:19:22.792Z,98759.31
2018-03-15T11:21:52.131Z,98750.96
2018-03-15T11:24:25.611Z,98737.91
2018-03-15T11:26:55.287Z,98743.52
2018-03-15T11:29:31.526Z,98735.00
2018-03-15T11:32:01.704Z,98722.22
2018-03-15T11:34:32.252Z,98724.53
2018-03-15T11:37:01.383Z,98714.58
2018-03-15T11:39:30.582Z,98695.41
2018-03-15T11:42:00.226Z,98690.23
2018-03-15T11:44:30.356Z,98685.75
2018-03-15T11:46:59.461Z,98678.73
2018-03-15T11:49:28.584Z,98667.45
2018-03-15T11:51:58.484Z,98661.34
2018-03-15T11:54:27.609Z,98661.89
2018-03-15T11:56:57.507Z,98650.08
2018-03-15T11:59:27.398Z,98652.16
2018-03-15T12:01:56.534Z,98641.03
2018-03-15T12:04:25.926Z,98621.30
2018-03-15T12:06:55.814Z,98618.77
2018-03-15T12:09:24.969Z,98609.66
2018-03-15T12:11:54.071Z,98603.50
2018-03-15T12:14:23.206Z,98595.75
2018-03-15T12:16:57.076Z,98596.21
2018-03-15T12:19:27.217Z,98594.27
2018-03-15T12:21:56.355Z,98576.17
2018-03-15T12:24:25.491Z,98579.84
2018-03-15T12:26:54.609Z,98569.84
2018-03-15T12:29:23.743Z,98561.67
2018-03-15T12:31:53.634Z,98561.82
2018-03-15T12:34:22.762Z,98554.41
2018-03-15T12:36:52.650Z,98552.09
2018-03-15T12:39:21.838Z,98541.48
2018-03-15T12:41:50.947Z,98541.75
2018-03-15T12:44:20.103Z,98526.46
2018-03-15T12:46:49.214Z,98524.13
2018-03-15T12:49:18.331Z,98521.64
2018-03-15T12:51:49.666Z,98516.13
2018-03-15T12:54:20.392Z,98511.26
2018-03-15T12:57:01.346Z,98498.52
2018-03-15T12:59:32.192Z,98494.58
2018-03-15T13:02:01.635Z,98493.19
2018-03-15T13:04:33.766Z,98484.94
2018-03-15T13:10:13.356Z,98483.18
2018-03-15T13:12:44.847Z,98481.19
2018-03-15T13:15:16.917Z,98479.84
2018-03-15T13:17:48.578Z,98468.67
2018-03-15T13:20:22.259Z,98469.55
2018-03-15T13:22:53.073Z,98471.92
2018-03-15T13:25:23.137Z,98472.30
2018-03-15T13:27:53.372Z,98477.25
2018-03-15T13:30:26.073Z,98474.09
2018-03-15T13:32:59.197Z,98481.64
2018-03-15T13:35:28.894Z,98463.29
2018-03-15T13:37:58.009Z,98477.98
2018-03-15T13:40:28.779Z,98472.80
2018-03-15T13:42:59.121Z,98467.09
2018-03-15T13:45:30.535Z,98481.37
2018-03-15T13:48:00.731Z,98483.69
2018-03-15T13:50:30.498Z,98488.27
2018-03-15T13:53:00.094Z,98491.75
2018-03-15T13:55:30.078Z,98493.33
2018-03-15T13:57:59.214Z,98491.53
2018-03-15T14:00:28.818Z,98490.37
2018-03-15T14:02:58.808Z,98488.71
2018-03-15T14:05:27.983Z,98485.73
2018-03-15T14:07:57.124Z,98489.63
2018-03-15T14:10:27.443Z,98486.94
2018-03-15T14:13:03.226Z,98484.12
2018-03-15T14:15:33.004Z,98480.59
2018-03-15T14:18:02.107Z,98474.48
2018-03-15T14:20:31.238Z,98469.02
2018-03-15T14:23:01.864Z,98465.45
2018-03-15T14:25:31.261Z,98466.20
2018-03-15T14:28:00.387Z,98459.56
2018-03-15T14:30:32.508Z,98455.03
2018-03-15T14:33:04.735Z,98446.41
2018-03-15T14:35:33.857Z,98448.11
2018-03-15T14:38:04.838Z,98442.51
2018-03-15T14:40:34.746Z,98433.88
2018-03-15T14:43:05.790Z,98435.73
2018-03-15T14:45:35.270Z,98427.72
2018-03-15T14:48:06.465Z,98421.02
2018-03-15T14:50:35.834Z,98396.85
2018-03-15T14:53:09.845Z,98383.47
2018-03-15T14:55:41.990Z,98393.55
2018-03-15T14:58:14.029Z,98409.46
2018-03-15T15:03:33.134Z,98380.67
2018-03-15T15:06:03.271Z,98369.77
2018-03-15T15:08:32.364Z,98378.20
2018-03-15T15:11:01.848Z,98396.81
2018-03-15T15:13:31.751Z,98409.91
2018-03-15T15:16:01.673Z,98420.88
2018-03-15T15:18:31.605Z,98437.20
2018-03-15T15:21:00.714Z,98449.65
2018-03-15T15:23:29.861Z,98451.48
2018-03-15T15:25:59.008Z,98455.27
2018-03-15T15:28:28.153Z,98459.99
2018-03-15T15:30:57.363Z,98465.27
2018-03-15T15:33:26.525Z,98464.06
2018-03-15T15:35:55.711Z,98465.27
2018-03-15T15:38:24.883Z,98466.83
2018-03-15T15:40:54.106Z,98467.21
2018-03-15T15:43:23.265Z,98474.05
2018-03-15T15:45:52.417Z,98479.91
2018-03-15T15:48:21.557Z,98481.88
2018-03-15T15:50:51.506Z,98483.92
2018-03-15T15:53:20.640Z,98491.57
2018-03-15T15:55:49.837Z,98492.83
2018-03-15T15:58:18.986Z,98495.85
2018-03-15T16:00:48.890Z,98489.31
2018-03-15T16:03:18.067Z,98478.41
2018-03-15T16:05:47.656Z,98485.25
2018-03-15T16:08:16.828Z,98495.69
2018-03-15T16:10:46.755Z,98484.09
2018-03-15T16:13:16.049Z,98465.33
2018-03-15T16:15:45.246Z,98491.99
2018-03-15T16:18:14.455Z,98486.78
2018-03-15T16:20:43.613Z,98473.95
2018-03-15T16:23:12.867Z,98456.95
2018-03-15T16:25:42.832Z,98459.02
2018-03-15T16:28:12.709Z,98490.12
2018-03-15T16:30:41.851Z,98506.56
2018-03-15T16:33:11.022Z,98499.77
2018-03-15T16:35:40.929Z,98492.55
2018-03-15T16:38:10.951Z,98482.55
2018-03-15T16:40:40.147Z,98470.90
2018-03-15T16:43:09.312Z,98473.22
2018-03-15T16:45:38.434Z,98464.00
2018-03-15T16:48:07.591Z,98478.98
2018-03-15T16:50:36.713Z,98499.55
2018-03-15T16:53:06.677Z,98511.95
2018-03-15T16:55:35.847Z,98524.45
2018-03-15T16:58:05.779Z,98522.55
2018-03-15T17:00:35.667Z,98521.44
2018-03-15T17:03:05.793Z,98513.31
2018-03-15T17:05:34.944Z,98513.86
2018-03-15T17:08:04.064Z,98517.55
2018-03-15T17:10:34.018Z,98529.03
2018-03-15T17:13:03.920Z,98540.39
2018-03-15T17:15:33.839Z,98546.63
2018-03-15T17:18:03.719Z,98547.34
2018-03-15T17:20:32.878Z,98549.31
2018-03-15T17:23:02.006Z,98553.77
2018-03-15T17:25:31.166Z,98559.33
2018-03-15T17:28:01.029Z,98562.59
2018-03-15T17:30:30.181Z,98563.75
2018-03-15T17:32:59.311Z,98568.59
2018-03-15T17:35:28.438Z,98561.03
2018-03-15T17:37:57.629Z,98566.41
2018-03-15T17:40:26.762Z,98574.81
2018-03-15T17:42:55.905Z,98583.14
2018-03-15T17:45:25.093Z,98579.02
2018-03-15T17:47:54.248Z,98574.30
2018-03-15T17:50:24.137Z,98579.80
2018-03-15T17:52:53.276Z,98584.59
2018-03-15T17:55:22.438Z,98588.67
2018-03-15T17:57:51.613Z,98591.27
2018-03-15T18:00:20.714Z,98593.67
2018-03-15T18:02:49.856Z,98590.87
2018-03-15T18:05:19.001Z,98579.42
2018-03-15T18:07:48.133Z,98580.67
2018-03-15T18:10:17.293Z,98574.76
2018-03-15T18:12:47.199Z,98564.94
2018-03-15T18:15:16.427Z,98561.34
2018-03-15T18:17:45.561Z,98568.87
2018-03-15T18:20:14.698Z,98574.59
2018-03-15T18:22:43.897Z,98578.97
2018-03-15T18:25:13.858Z,98585.75
2018-03-15T18:27:43.757Z,98592.84
2018-03-15T18:30:12.868Z,98595.09
2018-03-15T18:32:45.398Z,98594.84
2018-03-15T18:35:15.465Z,98594.97
2018-03-15T18:37:45.233Z,98610.97
2018-03-15T18:40:14.446Z,98619.02
2018-03-15T18:42:44.640Z,98628.61
2018-03-15T18:45:14.914Z,98632.94
2018-03-15T18:47:44.843Z,98648.91
2018-03-15T18:50:14.746Z,98667.48
2018-03-15T18:52:44.665Z,98668.14
2018-03-15T18:55:14.568Z,98678.57
2018-03-15T18:57:44.007Z,98680.36
2018-03-15T19:00:13.123Z,98690.27
2018-03-15T19:02:42.397Z,98693.83
2018-03-15T19:05:11.509Z,98699.86
2018-03-15T19:07:40.662Z,98705.82
2018-03-15T19:10:09.813Z,98705.34
2018-03-15T19:12:38.944Z,98713.63
2018-03-15T19:15:09.016Z,98722.89
2018-03-15T19:17:38.186Z,98713.94
2018-03-15T19:20:09.701Z,98725.27
2018-03-15T19:22:39.691Z,98727.08
2018-03-15T19:25:09.299Z,98724.82
2018-03-15T19:27:38.652Z,98736.16
2018-03-15T19:30:08.539Z,98737.69
2018-03-15T19:32:38.516Z,98733.41
2018-03-15T19:35:09.802Z,98731.62
2018-03-15T19:37:39.529Z,98733.45
2018-03-15T19:40:10.341Z,98734.59
2018-03-15T19:42:39.646Z,98740.55
2018-03-15T19:45:09.652Z,98745.33
2018-03-15T19:47:38.896Z,98738.94
2018-03-15T19:50:09.770Z,98734.27
2018-03-15T19:52:39.687Z,98745.33
2018-03-15T19:55:09.543Z,98759.89
2018-03-15T19:57:41.117Z,98764.59
2018-03-15T20:00:11.998Z,98767.28
2018-03-15T20:02:42.096Z,98777.41
2018-03-15T20:05:12.080Z,98782.77
2018-03-15T20:07:42.844Z,98781.14
2018-03-15T20:10:12.190Z,98776.56
2018-03-15T20:12:41.401Z,98782.23
2018-03-15T20:15:11.200Z,98785.45
2018-03-15T20:17:40.474Z,98772.96
2018-03-15T20:20:10.680Z,98782.58
2018-03-15T20:22:45.767Z,98781.75
2018-03-15T20:25:14.897Z,98790.38
2018-03-15T20:27:50.338Z,98795.08
2018-03-15T20:30:20.166Z,98796.98
2018-03-15T20:32:55.702Z,98806.93
2018-03-15T20:35:27.464Z,98807.14
2018-03-15T20:37:58.757Z,98816.75
2018-03-15T20:53:53.068Z,98851.38
2018-03-15T20:56:22.690Z,98846.06
2018-03-15T20:58:52.113Z,98852.13
2018-03-15T21:01:22.316Z,98858.23
2018-03-15T21:03:52.590Z,98866.67
2018-03-15T21:06:22.157Z,98870.10
2018-03-15T21:08:52.071Z,98869.39
2018-03-15T21:11:21.968Z,98868.59
2018-03-15T21:13:51.271Z,98865.88
2018-03-15T21:16:21.049Z,98864.08
2018-03-15T21:18:50.215Z,98856.58
2018-03-15T21:21:19.719Z,98860.23
2018-03-15T21:23:48.908Z,98868.77
2018-03-15T21:26:18.904Z,98873.81
2018-03-15T21:28:48.880Z,98883.32
2018-03-15T21:31:18.303Z,98884.61
2018-03-15T21:33:47.664Z,98890.90
2018-03-15T21:36:16.805Z,98901.13
2018-03-15T21:38:45.933Z,98902.87
2018-03-15T21:41:16.619Z,98902.84
2018-03-15T21:43:46.505Z,98901.60
2018-03-15T21:46:15.621Z,98900.53
2018-03-15T21:48:44.715Z,98899.03
2018-03-15T21:51:13.833Z,98900.67
2018-03-15T21:53:42.936Z,98901.51
2018-03-15T21:56:12.045Z,98901.95
2018-03-15T21:58:41.139Z,98900.81
2018-03-15T22:01:10.285Z,98903.82
2018-03-15T22:03:40.168Z,98912.39
2018-03-15T22:06:10.105Z,98909.07
2018-03-15T22:08:39.192Z,98912.30
2018-03-15T22:11:08.310Z,98909.14
2018-03-15T22:13:37.447Z,98911.61
2018-03-15T22:16:06.564Z,98909.14
2018-03-15T22:18:36.463Z,98921.23
2018-03-15T22:21:06.526Z,98911.80
2018-03-15T22:23:35.633Z,98914.84
2018-03-15T22:26:04.725Z,98909.57
2018-03-15T22:28:33.834Z,98911.63
2018-03-15T22:31:02.928Z,98914.92
2018-03-15T22:33:32.047Z,98917.09
2018-03-15T22:36:01.148Z,98905.83
2018-03-15T22:38:30.261Z,98907.42
2018-03-15T22:41:00.117Z,98900.48
2018-03-15T22:43:29.245Z,98906.70
2018-03-15T22:45:58.366Z,98910.74
2018-03-15T22:48:27.485Z,98905.78
2018-03-15T22:50:57.324Z,98906.07
2018-03-15T22:53:26.436Z,98905.09
2018-03-15T22:55:55.534Z,98900.68
2018-03-15T22:58:25.442Z,98906.98
2018-03-15T23:00:54.561Z,98904.28
2018-03-15T23:03:23.635Z,98908.73
2018-03-15T23:05:52.751Z,98908.53
2018-03-15T23:08:21.835Z,98909.14
2018-03-15T23:10:51.735Z,98913.39
2018-03-15T23:13:20.813Z,98907.25
2018-03-15T23:15:49.927Z,98915.45
2018-03-15T23:18:19.051Z,98915.07
2018-03-15T23:20:48.169Z,98918.64
2018-03-15T23:23:17.250Z,98911.48
2018-03-15T23:25:46.377Z,98920.23
2018-03-15T23:28:15.485Z,98926.37
2018-03-15T23:30:44.583Z,98929.69
2018-03-15T23:33:13.697Z,98927.03
2018-03-15T23:35:42.817Z,98924.31
2018-03-15T23:38:11.935Z,98919.22
2018-03-15T23:40:41.046Z,98934.64
2018-03-15T23:43:10.909Z,98934.98
2018-03-15T23:45:40.021Z,98934.72
2018-03-15T23:48:09.282Z,98941.34
2018-03-15T23:50:39.147Z,98940.31
2018-03-15T23:53:08.257Z,98942.63
2018-03-15T23:55:38.114Z,98950.70
2018-03-15T23:58:07.214Z,98951.01
